Luoyang, China
Current Conditions -  °F | °C
As of 8:00 PM on Friday 28 Nov 2014 (Local Time) from ZHCC Reporting Station
Haze Haze  
Wind Chill: 35°   Ceiling: Unl
Heat Index: 41°   Visibility: 1.2mi
Dew Point: 37°   Wind: 9mph
Humidity: 87%   Direction: 70°ENE
Pressure: 30.15"   Gusts: NA
Location:  34.68°N, 112.47°E
Report Text: ZHCC 281200Z 07004MPS 2000 BR NSC 05/03 Q1021 NOSIG
Loading
Personal Weather Stations






























Interactive Weather Map New forecast layout! Learn more

10-Day Weather Forecast

Advertisements
Track Severe Weather on mobile